createdAt,value
2018-12-11T00:02:12.506Z,23.38
2018-12-11T00:04:41.047Z,23.40
2018-12-11T00:07:09.955Z,23.37
2018-12-11T00:09:38.506Z,23.37
2018-12-11T00:12:07.063Z,23.38
2018-12-11T00:14:35.684Z,23.36
2018-12-11T00:17:04.328Z,23.37
2018-12-11T00:19:32.809Z,23.35
2018-12-11T00:22:01.672Z,23.36
2018-12-11T00:24:30.362Z,23.36
2018-12-11T00:26:58.978Z,23.36
2018-12-11T00:29:27.671Z,23.37
2018-12-11T00:31:56.230Z,23.37
2018-12-11T00:34:24.943Z,23.36
2018-12-11T00:36:53.750Z,23.34
2018-12-11T00:39:22.302Z,23.33
2018-12-11T00:41:50.730Z,23.32
2018-12-11T00:44:19.382Z,23.34
2018-12-11T00:46:47.794Z,23.33
2018-12-11T00:49:16.458Z,23.32
2018-12-11T00:51:45.133Z,23.32
2018-12-11T00:54:13.685Z,23.30
2018-12-11T00:56:42.375Z,23.29
2018-12-11T00:59:11.010Z,23.30
2018-12-11T01:01:39.722Z,23.30
2018-12-11T01:04:08.262Z,23.29
2018-12-11T01:06:36.962Z,23.29
2018-12-11T01:09:07.082Z,23.26
2018-12-11T01:11:35.640Z,23.26
2018-12-11T01:14:04.418Z,23.25
2018-12-11T01:16:33.082Z,23.25
2018-12-11T01:19:01.745Z,23.24
2018-12-11T01:21:30.517Z,23.25
2018-12-11T01:23:59.188Z,23.25
2018-12-11T01:26:27.642Z,23.26
2018-12-11T01:28:56.374Z,23.28
2018-12-11T01:31:25.123Z,23.25
2018-12-11T01:33:53.730Z,23.24
2018-12-11T01:36:22.610Z,23.22
2018-12-11T01:38:51.450Z,23.22
2018-12-11T01:41:20.192Z,23.25
2018-12-11T01:43:48.892Z,23.25
2018-12-11T01:46:17.450Z,23.25
2018-12-11T01:48:46.130Z,23.25
2018-12-11T01:51:15.106Z,23.23
2018-12-11T01:53:43.654Z,23.22
2018-12-11T01:56:12.208Z,23.20
2018-12-11T01:58:41.004Z,23.20
2018-12-11T02:01:09.602Z,23.22
2018-12-11T02:03:38.412Z,23.23
2018-12-11T02:06:07.220Z,23.22
2018-12-11T02:08:35.986Z,23.21
2018-12-11T02:11:04.526Z,23.21
2018-12-11T02:13:33.326Z,23.21
2018-12-11T02:16:01.897Z,23.20
2018-12-11T02:18:30.434Z,23.20
2018-12-11T02:20:59.159Z,23.21
2018-12-11T02:23:27.734Z,23.21
2018-12-11T02:25:56.427Z,23.20
2018-12-11T02:28:25.302Z,23.22
2018-12-11T02:30:54.094Z,23.20
2018-12-11T02:33:22.850Z,23.22
2018-12-11T02:35:51.555Z,23.20
2018-12-11T02:38:20.007Z,23.18
2018-12-11T02:40:48.594Z,23.20
2018-12-11T02:43:17.183Z,23.19
2018-12-11T02:45:45.816Z,23.18
2018-12-11T02:48:14.369Z,23.18
2018-12-11T02:50:43.211Z,23.18
2018-12-11T02:53:11.822Z,23.18
2018-12-11T02:55:40.528Z,23.19
2018-12-11T02:58:09.147Z,23.18
2018-12-11T03:00:38.010Z,23.17
2018-12-11T03:03:06.554Z,23.17
2018-12-11T03:05:35.251Z,23.16
2018-12-11T03:08:03.962Z,23.17
2018-12-11T03:10:32.646Z,23.16
2018-12-11T03:13:01.312Z,23.16
2018-12-11T03:15:29.938Z,23.17
2018-12-11T03:17:58.702Z,23.16
2018-12-11T03:20:27.820Z,23.17
2018-12-11T03:22:56.351Z,23.15
2018-12-11T03:25:25.032Z,23.15
2018-12-11T03:27:53.830Z,23.16
2018-12-11T03:30:22.664Z,23.15
2018-12-11T03:32:51.356Z,23.18
2018-12-11T03:35:20.083Z,23.15
2018-12-11T03:37:48.566Z,23.15
2018-12-11T03:40:17.385Z,23.13
2018-12-11T03:42:46.086Z,23.13
2018-12-11T03:45:14.774Z,23.14
2018-12-11T03:47:43.268Z,23.14
2018-12-11T03:50:12.287Z,23.14
2018-12-11T03:52:40.730Z,23.14
2018-12-11T03:55:09.434Z,23.15
2018-12-11T03:57:38.295Z,23.13
2018-12-11T04:00:12.018Z,23.12
2018-12-11T04:02:40.706Z,23.11
2018-12-11T04:05:09.150Z,23.11
2018-12-11T04:07:37.716Z,23.11
2018-12-11T04:10:08.262Z,23.14
2018-12-11T04:12:36.996Z,23.14
2018-12-11T04:15:05.827Z,23.13
2018-12-11T04:17:34.540Z,23.12
2018-12-11T04:20:03.355Z,23.12
2018-12-11T04:22:32.031Z,23.09
2018-12-11T04:25:00.709Z,23.09
2018-12-11T04:27:29.382Z,23.07
2018-12-11T04:29:58.014Z,23.10
2018-12-11T04:32:26.645Z,23.11
2018-12-11T04:34:55.283Z,23.08
2018-12-11T04:37:23.991Z,23.08
2018-12-11T04:39:52.989Z,23.08
2018-12-11T04:42:21.562Z,23.03
2018-12-11T04:44:50.041Z,23.04
2018-12-11T04:47:18.630Z,23.03
2018-12-11T04:49:47.315Z,23.04
2018-12-11T04:52:15.998Z,23.06
2018-12-11T04:54:44.766Z,23.02
2018-12-11T04:57:13.530Z,23.00
2018-12-11T04:59:42.546Z,23.00
2018-12-11T05:02:11.102Z,22.99
2018-12-11T05:04:39.578Z,22.98
2018-12-11T05:07:08.137Z,23.01
2018-12-11T05:09:37.014Z,22.99
2018-12-11T05:12:05.721Z,23.00
2018-12-11T05:14:34.362Z,23.02
2018-12-11T05:17:03.175Z,23.02
2018-12-11T05:19:31.915Z,23.02
2018-12-11T05:22:00.602Z,23.01
2018-12-11T05:24:29.419Z,23.00
2018-12-11T05:26:58.044Z,23.00
2018-12-11T05:29:27.002Z,23.02
2018-12-11T05:31:55.806Z,23.05
2018-12-11T05:34:24.354Z,23.04
2018-12-11T05:36:52.915Z,23.04
2018-12-11T05:39:26.670Z,23.00
2018-12-11T05:41:55.118Z,22.99
2018-12-11T05:44:23.666Z,22.99
2018-12-11T05:46:52.278Z,22.97
2018-12-11T05:49:21.116Z,22.97
2018-12-11T05:51:49.675Z,23.04
2018-12-11T05:54:18.523Z,23.04
2018-12-11T05:56:47.078Z,23.05
2018-12-11T05:59:15.998Z,23.03
2018-12-11T06:01:45.010Z,23.03
2018-12-11T06:04:13.463Z,23.00
2018-12-11T06:06:42.555Z,22.99
2018-12-11T06:09:11.337Z,23.03
2018-12-11T06:11:40.082Z,23.02
2018-12-11T06:14:08.816Z,23.02
2018-12-11T06:16:37.716Z,23.05
2018-12-11T06:19:06.438Z,23.03
2018-12-11T06:21:34.986Z,23.02
2018-12-11T06:24:03.607Z,22.96
2018-12-11T06:26:32.192Z,22.96
2018-12-11T06:29:00.730Z,22.99
2018-12-11T06:31:29.637Z,22.99
2018-12-11T06:33:58.207Z,23.03
2018-12-11T06:36:26.816Z,23.03
2018-12-11T06:38:56.022Z,23.02
2018-12-11T06:41:25.055Z,23.01
2018-12-11T06:43:53.790Z,23.00
2018-12-11T06:46:22.499Z,22.96
2018-12-11T06:48:51.259Z,22.96
2018-12-11T06:51:19.830Z,22.98
2018-12-11T06:53:48.463Z,22.98
2018-12-11T06:56:17.019Z,22.97
2018-12-11T06:58:45.541Z,23.00
2018-12-11T07:01:14.362Z,22.99
2018-12-11T07:03:42.796Z,22.99
2018-12-11T07:06:11.230Z,22.99
2018-12-11T07:08:39.870Z,23.02
2018-12-11T07:11:08.498Z,23.02
2018-12-11T07:13:37.190Z,23.04
2018-12-11T07:16:07.426Z,23.04
2018-12-11T07:18:36.090Z,23.09
2018-12-11T07:21:04.778Z,23.24
2018-12-11T07:23:33.459Z,23.25
2018-12-11T07:26:02.195Z,23.21
2018-12-11T07:28:30.750Z,23.12
2018-12-11T07:30:59.474Z,23.11
2018-12-11T07:33:28.157Z,23.09
2018-12-11T07:35:56.778Z,23.07
2018-12-11T07:38:25.981Z,23.04
2018-12-11T07:40:54.723Z,23.10
2018-12-11T07:43:23.148Z,23.11
2018-12-11T07:45:51.911Z,23.12
2018-12-11T07:48:20.474Z,23.14
2018-12-11T07:50:49.088Z,23.15
2018-12-11T07:53:17.762Z,23.11
2018-12-11T07:55:46.478Z,23.12
2018-12-11T07:58:15.054Z,23.14
2018-12-11T08:00:43.836Z,23.13
2018-12-11T08:03:12.675Z,23.12
2018-12-11T08:05:41.367Z,23.08
2018-12-11T08:08:14.114Z,23.10
2018-12-11T08:10:42.790Z,23.10
2018-12-11T08:13:11.230Z,23.10
2018-12-11T08:15:39.920Z,23.09
2018-12-11T08:18:08.667Z,23.11
2018-12-11T08:20:37.551Z,23.09
2018-12-11T08:23:06.328Z,23.11
2018-12-11T08:25:34.762Z,23.11
2018-12-11T08:28:03.506Z,23.11
2018-12-11T08:30:32.441Z,23.10
2018-12-11T08:33:01.000Z,23.06
2018-12-11T08:35:29.458Z,23.08
2018-12-11T08:40:37.319Z,23.06
2018-12-11T08:43:05.985Z,23.07
2018-12-11T08:45:34.790Z,23.07
2018-12-11T08:48:03.361Z,23.07
2018-12-11T08:50:31.862Z,23.09
2018-12-11T08:53:00.443Z,23.06
2018-12-11T08:55:28.892Z,23.06
2018-12-11T08:57:57.587Z,23.07
2018-12-11T09:00:26.093Z,23.02
2018-12-11T09:02:54.702Z,23.03
2018-12-11T09:05:23.598Z,23.04
2018-12-11T09:07:52.044Z,23.05
2018-12-11T09:10:20.714Z,23.06
2018-12-11T09:12:49.444Z,23.03
2018-12-11T09:15:17.894Z,23.04
2018-12-11T09:17:46.334Z,23.04
2018-12-11T09:20:14.831Z,23.01
2018-12-11T09:22:43.384Z,23.00
2018-12-11T09:25:11.824Z,23.02
2018-12-11T09:27:40.610Z,23.00
2018-12-11T09:30:09.882Z,23.00
2018-12-11T09:32:38.328Z,23.04
2018-12-11T09:35:07.167Z,23.03
2018-12-11T09:37:35.657Z,23.02
2018-12-11T09:40:04.550Z,23.00
2018-12-11T09:42:35.024Z,23.05
2018-12-11T09:45:03.803Z,23.07
2018-12-11T09:47:32.243Z,23.05
2018-12-11T09:50:00.986Z,23.07
2018-12-11T09:52:29.447Z,23.05
2018-12-11T09:54:58.038Z,23.03
2018-12-11T09:57:26.715Z,23.03
2018-12-11T09:59:55.263Z,23.03
2018-12-11T10:02:23.815Z,23.03
2018-12-11T10:04:52.514Z,23.05
2018-12-11T10:07:21.164Z,23.07
2018-12-11T10:09:49.938Z,23.07
2018-12-11T10:12:18.494Z,23.06
2018-12-11T10:14:47.119Z,23.07
2018-12-11T10:17:15.686Z,23.07
2018-12-11T10:19:44.342Z,23.05
2018-12-11T10:22:12.914Z,23.07
2018-12-11T10:24:41.486Z,23.06
2018-12-11T10:27:10.087Z,23.08
2018-12-11T10:29:38.771Z,23.11
2018-12-11T10:32:07.198Z,23.11
2018-12-11T10:34:35.898Z,23.07
2018-12-11T10:37:04.470Z,23.09
2018-12-11T10:39:33.153Z,23.07
2018-12-11T10:42:01.663Z,23.06
2018-12-11T10:44:30.235Z,23.08
2018-12-11T10:46:58.827Z,23.09
2018-12-11T10:49:27.707Z,23.10
2018-12-11T10:51:56.186Z,23.12
2018-12-11T10:54:24.611Z,23.11
2018-12-11T10:56:53.459Z,23.08
2018-12-11T10:59:22.528Z,23.09
2018-12-11T11:01:53.830Z,23.10
2018-12-11T11:04:23.470Z,23.10
2018-12-11T11:06:52.053Z,23.13
2018-12-11T11:09:21.074Z,23.14
2018-12-11T11:11:49.518Z,23.15
2018-12-11T11:14:17.988Z,23.14
2018-12-11T11:16:46.750Z,23.15
2018-12-11T11:19:15.519Z,23.12
2018-12-11T11:21:44.058Z,23.12
2018-12-11T11:24:12.563Z,23.16
2018-12-11T11:26:41.121Z,23.12
2018-12-11T11:29:09.938Z,23.15
2018-12-11T11:31:38.531Z,23.15
2018-12-11T11:34:06.963Z,23.16
2018-12-11T11:36:35.515Z,23.16
2018-12-11T11:39:06.065Z,23.14
2018-12-11T11:41:34.614Z,23.13
2018-12-11T11:44:03.172Z,23.15
2018-12-11T11:46:31.938Z,23.15
2018-12-11T11:49:00.581Z,23.14
2018-12-11T11:51:29.147Z,23.16
2018-12-11T11:53:57.643Z,23.16
2018-12-11T11:56:26.306Z,23.18
2018-12-11T11:58:55.084Z,23.15
2018-12-11T12:01:23.778Z,23.13
2018-12-11T12:03:52.351Z,23.16
2018-12-11T12:06:20.895Z,23.17
2018-12-11T12:08:49.478Z,23.18
2018-12-11T12:13:57.555Z,23.18
2018-12-11T12:16:26.070Z,23.16
2018-12-11T12:18:54.642Z,23.17
2018-12-11T12:21:23.166Z,23.16
2018-12-11T12:23:51.587Z,23.17
2018-12-11T12:26:20.126Z,23.16
2018-12-11T12:28:48.850Z,23.16
2018-12-11T12:31:18.155Z,23.19
2018-12-11T12:33:46.640Z,23.18
2018-12-11T12:36:15.346Z,23.13
2018-12-11T12:38:43.897Z,23.16
2018-12-11T12:41:12.573Z,23.15
2018-12-11T12:43:41.071Z,23.19
2018-12-11T12:46:09.626Z,23.18
2018-12-11T12:48:38.067Z,23.20
2018-12-11T12:51:06.599Z,23.19
2018-12-11T12:53:35.157Z,23.17
2018-12-11T12:56:03.602Z,23.19
2018-12-11T12:58:32.354Z,23.18
2018-12-11T13:01:01.127Z,23.16
2018-12-11T13:03:30.031Z,23.18
2018-12-11T13:05:58.626Z,23.19
2018-12-11T13:08:27.306Z,23.19
2018-12-11T13:10:55.806Z,23.19
2018-12-11T13:13:24.699Z,23.16
2018-12-11T13:15:53.123Z,23.18
2018-12-11T13:18:21.561Z,23.17
2018-12-11T13:20:50.167Z,23.17
2018-12-11T13:23:18.622Z,23.19
2018-12-11T13:25:47.795Z,23.16
2018-12-11T13:28:16.278Z,23.15
2018-12-11T13:30:44.930Z,23.21
2018-12-11T13:33:13.366Z,23.15
2018-12-11T13:35:42.022Z,23.17
2018-12-11T13:38:10.585Z,23.18
2018-12-11T13:40:39.851Z,23.18
2018-12-11T13:43:08.986Z,23.18
2018-12-11T13:45:37.497Z,23.14
2018-12-11T13:48:06.174Z,23.14
2018-12-11T13:50:35.603Z,23.17
2018-12-11T13:53:04.102Z,23.17
2018-12-11T13:55:32.554Z,23.14
2018-12-11T13:58:01.298Z,23.18
2018-12-11T14:00:29.939Z,23.16
2018-12-11T14:02:58.370Z,23.14
2018-12-11T14:05:26.914Z,23.14
2018-12-11T14:07:55.682Z,23.16
2018-12-11T14:10:24.337Z,23.14
2018-12-11T14:12:53.055Z,23.15
2018-12-11T14:15:21.717Z,23.17
2018-12-11T14:17:50.210Z,23.15
2018-12-11T14:20:18.927Z,23.16
2018-12-11T14:22:47.374Z,23.15
2018-12-11T14:25:15.858Z,23.16
2018-12-11T14:27:44.408Z,23.17
2018-12-11T14:30:13.219Z,23.17
2018-12-11T14:32:41.651Z,23.17
2018-12-11T14:35:10.346Z,23.19
2018-12-11T14:37:38.834Z,23.17
2018-12-11T14:40:07.942Z,23.18
2018-12-11T14:42:36.614Z,23.14
2018-12-11T14:45:06.210Z,23.15
2018-12-11T14:47:34.730Z,23.13
2018-12-11T14:50:03.474Z,23.15
2018-12-11T14:52:32.225Z,23.18
2018-12-11T14:55:00.794Z,23.18
2018-12-11T14:57:31.361Z,23.16
2018-12-11T14:59:59.909Z,23.16
2018-12-11T15:02:29.540Z,23.17
2018-12-11T15:04:58.182Z,23.14
2018-12-11T15:07:26.726Z,23.13
2018-12-11T15:09:55.526Z,23.17
2018-12-11T15:12:24.242Z,23.17
2018-12-11T15:14:52.814Z,23.18
2018-12-11T15:17:21.450Z,23.17
2018-12-11T15:19:50.389Z,23.17
2018-12-11T15:22:18.882Z,23.19
2018-12-11T15:24:47.391Z,23.15
2018-12-11T15:27:15.987Z,23.16
2018-12-11T15:29:44.634Z,23.15
2018-12-11T15:32:13.178Z,23.17
2018-12-11T15:34:41.739Z,23.18
2018-12-11T15:37:10.298Z,23.17
2018-12-11T15:39:38.879Z,23.18
2018-12-11T15:42:07.482Z,23.18
2018-12-11T15:44:36.106Z,23.17
2018-12-11T15:47:04.602Z,23.17
2018-12-11T15:49:33.295Z,23.17
2018-12-11T15:52:01.725Z,23.17
2018-12-11T15:54:30.171Z,23.18
2018-12-11T15:56:59.302Z,23.18
2018-12-11T15:59:27.991Z,23.15
2018-12-11T16:01:56.442Z,23.18
2018-12-11T16:04:25.135Z,23.12
2018-12-11T16:06:53.568Z,23.11
2018-12-11T16:09:26.283Z,23.10
2018-12-11T16:11:54.898Z,23.18
2018-12-11T16:14:23.578Z,23.18
2018-12-11T16:16:52.159Z,23.16
2018-12-11T16:19:20.954Z,23.16
2018-12-11T16:21:49.566Z,23.15
2018-12-11T16:24:18.196Z,23.15
2018-12-11T16:26:46.681Z,23.11
2018-12-11T16:29:15.241Z,23.13
2018-12-11T16:31:43.831Z,23.10
2018-12-11T16:34:12.329Z,23.13
2018-12-11T16:36:40.891Z,23.15
2018-12-11T16:39:09.639Z,23.16
2018-12-11T16:41:38.083Z,23.16
2018-12-11T16:44:06.646Z,23.16
2018-12-11T16:46:35.271Z,23.16
2018-12-11T16:49:03.812Z,23.16
2018-12-11T16:51:32.247Z,23.13
2018-12-11T16:54:00.841Z,23.15
2018-12-11T16:56:29.286Z,23.20
2018-12-11T16:58:58.006Z,23.19
2018-12-11T17:01:26.681Z,23.20
2018-12-11T17:03:55.551Z,23.18
2018-12-11T17:06:24.038Z,23.17
2018-12-11T17:08:52.750Z,23.15
2018-12-11T17:11:21.186Z,23.17
2018-12-11T17:13:49.627Z,23.17
2018-12-11T17:16:18.271Z,23.17
2018-12-11T17:18:46.990Z,23.19
2018-12-11T17:21:15.619Z,23.22
2018-12-11T17:23:44.111Z,23.22
2018-12-11T17:26:12.694Z,23.19
2018-12-11T17:28:41.304Z,23.14
2018-12-11T17:31:09.940Z,23.14
2018-12-11T17:33:38.499Z,23.15
2018-12-11T17:36:06.991Z,23.14
2018-12-11T17:38:36.143Z,23.18
2018-12-11T17:41:04.603Z,23.16
2018-12-11T17:43:33.030Z,23.14
2018-12-11T17:46:01.744Z,23.14
2018-12-11T17:48:30.306Z,23.11
2018-12-11T17:50:59.084Z,23.07
2018-12-11T17:53:28.038Z,23.05
2018-12-11T17:55:56.499Z,23.05
2018-12-11T17:58:25.046Z,23.06
2018-12-11T18:00:53.791Z,23.05
2018-12-11T18:03:22.382Z,23.05
2018-12-11T18:05:51.105Z,23.06
2018-12-11T18:08:19.706Z,23.07
2018-12-11T18:10:48.418Z,23.04
2018-12-11T18:13:17.090Z,23.06
2018-12-11T18:15:45.580Z,23.04
2018-12-11T18:18:14.115Z,23.04
2018-12-11T18:20:42.670Z,23.00
2018-12-11T18:23:11.303Z,22.98
2018-12-11T18:25:39.935Z,22.97
2018-12-11T18:28:08.362Z,22.96
2018-12-11T18:30:37.083Z,22.92
2018-12-11T18:33:05.521Z,22.93
2018-12-11T18:35:34.300Z,22.89
2018-12-11T18:38:03.114Z,22.89
2018-12-11T18:40:31.809Z,22.90
2018-12-11T18:43:00.250Z,22.90
2018-12-11T18:45:28.955Z,22.92
2018-12-11T18:47:57.452Z,22.96
2018-12-11T18:50:25.998Z,22.98
2018-12-11T18:52:54.585Z,22.97
2018-12-11T18:55:23.238Z,22.97
2018-12-11T18:57:51.682Z,22.99
2018-12-11T19:00:20.202Z,23.02
2018-12-11T19:02:48.850Z,23.07
2018-12-11T19:05:17.344Z,23.08
2018-12-11T19:07:45.958Z,23.07
2018-12-11T19:10:14.420Z,23.08
2018-12-11T19:12:43.078Z,23.10
2018-12-11T19:15:11.712Z,23.11
2018-12-11T19:17:40.390Z,23.11
2018-12-11T19:20:08.871Z,23.13
2018-12-11T19:22:37.463Z,23.13
2018-12-11T19:25:08.309Z,23.16
2018-12-11T19:27:36.754Z,23.12
2018-12-11T19:30:06.078Z,23.16
2018-12-11T19:32:34.682Z,23.16
2018-12-11T19:35:04.416Z,23.15
2018-12-11T19:37:33.298Z,23.16
2018-12-11T19:40:02.247Z,23.14
2018-12-11T19:42:30.850Z,23.14
2018-12-11T19:44:59.430Z,23.14
2018-12-11T19:47:28.002Z,23.13
2018-12-11T19:49:56.558Z,23.12
2018-12-11T19:52:25.179Z,23.12
2018-12-11T19:54:53.747Z,23.12
2018-12-11T19:57:22.359Z,23.13
2018-12-11T19:59:50.863Z,23.09
2018-12-11T20:02:19.418Z,23.06
2018-12-11T20:04:48.018Z,23.09
2018-12-11T20:07:16.619Z,23.08
2018-12-11T20:09:50.174Z,23.07
2018-12-11T20:12:18.916Z,23.07
2018-12-11T20:14:47.436Z,23.06
2018-12-11T20:17:16.022Z,23.06
2018-12-11T20:19:44.691Z,23.03
2018-12-11T20:22:13.295Z,23.05
2018-12-11T20:24:41.792Z,23.03
2018-12-11T20:27:10.530Z,23.04
2018-12-11T20:29:39.125Z,23.06
2018-12-11T20:32:07.627Z,23.08
2018-12-11T20:34:36.385Z,23.09
2018-12-11T20:37:05.155Z,23.07
2018-12-11T20:39:33.703Z,23.09
2018-12-11T20:42:03.169Z,23.10
2018-12-11T20:44:31.622Z,23.13
2018-12-11T20:49:50.623Z,23.10
2018-12-11T20:52:19.068Z,23.10
2018-12-11T20:54:47.478Z,23.17
2018-12-11T20:57:15.990Z,23.19
2018-12-11T20:59:44.739Z,23.19
2018-12-11T21:02:13.177Z,23.25
2018-12-11T21:04:41.834Z,23.22
2018-12-11T21:07:10.475Z,23.20
2018-12-11T21:09:40.044Z,23.18
2018-12-11T21:12:09.832Z,23.19
2018-12-11T21:14:38.310Z,23.16
2018-12-11T21:17:06.726Z,23.15
2018-12-11T21:19:35.487Z,23.16
2018-12-11T21:22:04.864Z,23.16
2018-12-11T21:24:33.827Z,23.16
2018-12-11T21:27:02.435Z,23.18
2018-12-11T21:29:32.002Z,23.17
2018-12-11T21:32:00.678Z,23.17
2018-12-11T21:34:29.180Z,23.14
2018-12-11T21:36:57.675Z,23.16
2018-12-11T21:39:26.167Z,23.15
2018-12-11T21:41:54.827Z,23.19
2018-12-11T21:44:23.382Z,23.24
2018-12-11T21:46:51.842Z,23.20
2018-12-11T21:49:20.474Z,23.19
2018-12-11T21:51:48.902Z,23.20
2018-12-11T21:54:17.390Z,23.29
2018-12-11T21:56:45.991Z,23.25
2018-12-11T21:59:14.735Z,23.31
2018-12-11T22:01:43.378Z,23.28
2018-12-11T22:04:12.099Z,23.26
2018-12-11T22:06:40.730Z,23.25
2018-12-11T22:09:09.598Z,23.26
2018-12-11T22:11:38.091Z,23.28
2018-12-11T22:14:06.530Z,23.26
2018-12-11T22:16:34.950Z,23.23
2018-12-11T22:19:03.870Z,23.25
2018-12-11T22:21:32.366Z,23.25
2018-12-11T22:24:00.794Z,23.26
2018-12-11T22:26:29.274Z,23.25
2018-12-11T22:28:58.048Z,23.26
2018-12-11T22:31:26.847Z,23.25
2018-12-11T22:33:55.474Z,23.25
2018-12-11T22:36:24.039Z,23.24
2018-12-11T22:38:52.918Z,23.23
2018-12-11T22:41:21.515Z,23.21
2018-12-11T22:43:49.966Z,23.26
2018-12-11T22:46:18.794Z,23.24
2018-12-11T22:48:47.795Z,23.25
2018-12-11T22:51:16.682Z,23.29
2018-12-11T22:53:45.130Z,23.26
2018-12-11T22:56:13.886Z,23.29
2018-12-11T22:58:42.443Z,23.26
2018-12-11T23:01:11.070Z,23.25
2018-12-11T23:03:39.650Z,23.23
2018-12-11T23:06:08.070Z,23.25
2018-12-11T23:08:36.507Z,23.25
2018-12-11T23:11:05.227Z,23.28
2018-12-11T23:13:33.832Z,23.28
2018-12-11T23:16:02.427Z,23.29
2018-12-11T23:18:31.059Z,23.28
2018-12-11T23:20:59.670Z,23.26
2018-12-11T23:23:28.563Z,23.28
2018-12-11T23:25:57.106Z,23.31
2018-12-11T23:28:25.555Z,23.31
2018-12-11T23:30:54.313Z,23.27
2018-12-11T23:33:23.170Z,23.31
2018-12-11T23:35:51.610Z,23.29
2018-12-11T23:38:20.051Z,23.28
2018-12-11T23:40:48.868Z,23.26
2018-12-11T23:43:17.305Z,23.23
2018-12-11T23:45:45.790Z,23.29
2018-12-11T23:48:14.454Z,23.31
2018-12-11T23:50:43.170Z,23.33
2018-12-11T23:53:11.594Z,23.30
2018-12-11T23:55:40.306Z,23.33
2018-12-11T23:58:08.875Z,23.28
